Billinghay, United Kingdom
Current Conditions -  °F | °C
As of 2:10 PM on Thursday 27 Nov 2014 (Local Time) from EGXC Reporting Station
Broken Clouds Broken Clouds  
Wind Chill: 50°   Ceiling: 900
Heat Index: 50°   Visibility: 6mi
Dew Point: 48°   Wind: 12mph
Humidity: 94%   Direction: 190°S
Pressure: 29.56"   Gusts: NA
Location:  53.08°N, 0.28°W
Report Text: EGXC 271410Z 19010KT 9999 FEW005 BKN009 10/09 Q1001 GRN NOSIG
Loading
Personal Weather Stations






























Interactive Weather Map New forecast layout! Learn more

10-Day Weather Forecast

Advertisements
Track Severe Weather on mobile